DAL1015 KATL-KMCO
Flight info
| Callsign | DAL1015 |
|---|---|
| Flight time | 1h 3m |
| Altitude | 35000 |
| Route | SMLTZ3 WALET ZJAYX GRNCH5 |
| Aircraft | A321/M-SDE3FGHIRWY/LB1 |
Departure
| Time | 2026-05-04 23:38 |
|---|---|
| Airport | Hartsfield Jackson Atlanta International Airport (KATL) |
Arrival
| Time | 2026-05-05 00:41 |
|---|---|
| Airport | Orlando International Airport (KMCO) |
| Time | Latitude | Longitude | Altitude | Speed | Heading |
|---|---|---|---|---|---|
| 2026-05-04 23:19 | 33.63911 | -84.43538 | 1036 ft | 0 kts | 268° |
| 2026-05-04 23:28 | 33.63911 | -84.43533 | 1035 ft | 3 kts | 268° |
| 2026-05-04 23:28 | 33.63913 | -84.43501 | 1035 ft | 4 kts | 256° |
| 2026-05-04 23:28 | 33.63923 | -84.43472 | 1035 ft | 4 kts | 226° |
| 2026-05-04 23:29 | 33.63940 | -84.43460 | 1035 ft | 1 kts | 180° |
| 2026-05-04 23:32 | 33.63883 | -84.43461 | 1035 ft | 14 kts | 180° |
| 2026-05-04 23:32 | 33.63781 | -84.43462 | 1035 ft | 15 kts | 179° |
| 2026-05-04 23:33 | 33.63685 | -84.43445 | 1035 ft | 13 kts | 144° |
| 2026-05-04 23:33 | 33.63665 | -84.43344 | 1035 ft | 12 kts | 90° |
| 2026-05-04 23:33 | 33.63665 | -84.43250 | 1035 ft | 11 kts | 90° |
| 2026-05-04 23:33 | 33.63665 | -84.43146 | 1035 ft | 18 kts | 90° |
| 2026-05-04 23:34 | 33.63665 | -84.42958 | 1035 ft | 23 kts | 90° |
| 2026-05-04 23:34 | 33.63665 | -84.42772 | 1035 ft | 21 kts | 92° |
| 2026-05-04 23:34 | 33.63656 | -84.42608 | 1036 ft | 19 kts | 90° |
| 2026-05-04 23:34 | 33.63656 | -84.42458 | 1036 ft | 17 kts | 89° |
| 2026-05-04 23:35 | 33.63656 | -84.42298 | 1036 ft | 23 kts | 90° |
| 2026-05-04 23:35 | 33.63615 | -84.42123 | 1036 ft | 21 kts | 118° |
| 2026-05-04 23:35 | 33.63582 | -84.41965 | 1035 ft | 19 kts | 90° |
| 2026-05-04 23:35 | 33.63582 | -84.41810 | 1035 ft | 18 kts | 90° |
| 2026-05-04 23:36 | 33.63583 | -84.41667 | 1035 ft | 16 kts | 89° |
| 2026-05-04 23:36 | 33.63583 | -84.41536 | 1035 ft | 15 kts | 90° |
| 2026-05-04 23:36 | 33.63583 | -84.41415 | 1034 ft | 14 kts | 89° |
| 2026-05-04 23:36 | 33.63582 | -84.41272 | 1035 ft | 23 kts | 91° |
| 2026-05-04 23:37 | 33.63583 | -84.41059 | 1035 ft | 24 kts | 89° |
| 2026-05-04 23:37 | 33.63523 | -84.40913 | 1036 ft | 18 kts | 173° |
| 2026-05-04 23:37 | 33.63470 | -84.41007 | 1036 ft | 13 kts | 269° |
| 2026-05-04 23:37 | 33.63470 | -84.41036 | 1035 ft | 9 kts | 270° |
| 2026-05-04 23:38 | 33.63476 | -84.41408 | 1035 ft | 82 kts | 270° |
| 2026-05-04 23:38 | 33.63473 | -84.42352 | 1037 ft | 142 kts | 270° |
| 2026-05-04 23:38 | 33.63476 | -84.43719 | 1154 ft | 177 kts | 270° |
| 2026-05-04 23:38 | 33.63495 | -84.45156 | 2041 ft | 167 kts | 268° |
| 2026-05-04 23:39 | 33.63517 | -84.46525 | 2782 ft | 167 kts | 268° |
| 2026-05-04 23:39 | 33.63516 | -84.47996 | 3092 ft | 185 kts | 267° |
| 2026-05-04 23:39 | 33.63503 | -84.49608 | 3227 ft | 201 kts | 267° |
| 2026-05-04 23:39 | 33.63490 | -84.51362 | 3352 ft | 220 kts | 268° |
| 2026-05-04 23:40 | 33.63479 | -84.53284 | 3462 ft | 243 kts | 268° |
| 2026-05-04 23:40 | 33.63468 | -84.55403 | 3818 ft | 261 kts | 268° |
| 2026-05-04 23:40 | 33.63462 | -84.57608 | 4510 ft | 266 kts | 268° |
| 2026-05-04 23:40 | 33.63460 | -84.59831 | 5265 ft | 268 kts | 268° |
| 2026-05-04 23:41 | 33.63447 | -84.62084 | 6027 ft | 269 kts | 264° |
| 2026-05-04 23:41 | 33.63047 | -84.64265 | 6740 ft | 269 kts | 246° |
| 2026-05-04 23:41 | 33.62093 | -84.66195 | 7447 ft | 270 kts | 229° |
| 2026-05-04 23:41 | 33.60680 | -84.67679 | 8182 ft | 271 kts | 212° |
| 2026-05-04 23:42 | 33.59015 | -84.68752 | 8893 ft | 274 kts | 203° |
| 2026-05-04 23:42 | 33.57159 | -84.69344 | 9568 ft | 280 kts | 188° |
| 2026-05-04 23:42 | 33.55190 | -84.69302 | 10190 ft | 287 kts | 173° |
| 2026-05-04 23:42 | 33.53212 | -84.68920 | 10789 ft | 291 kts | 173° |
| 2026-05-04 23:43 | 33.51194 | -84.68532 | 11408 ft | 294 kts | 173° |
| 2026-05-04 23:43 | 33.49167 | -84.68147 | 12031 ft | 297 kts | 173° |
| 2026-05-04 23:43 | 33.47141 | -84.67763 | 12639 ft | 301 kts | 173° |
| 2026-05-04 23:43 | 33.45036 | -84.67367 | 13276 ft | 304 kts | 173° |
| 2026-05-04 23:44 | 33.42972 | -84.66749 | 13877 ft | 310 kts | 160° |
| 2026-05-04 23:44 | 33.41044 | -84.65522 | 14278 ft | 323 kts | 146° |
| 2026-05-04 23:44 | 33.39301 | -84.63655 | 14395 ft | 344 kts | 136° |
| 2026-05-04 23:44 | 33.37610 | -84.61630 | 14662 ft | 356 kts | 137° |
| 2026-05-04 23:45 | 33.35844 | -84.59522 | 15140 ft | 361 kts | 137° |
| 2026-05-04 23:45 | 33.34029 | -84.57366 | 15685 ft | 365 kts | 137° |
| 2026-05-04 23:45 | 33.32243 | -84.55251 | 16224 ft | 368 kts | 138° |
| 2026-05-04 23:45 | 33.30414 | -84.53093 | 16757 ft | 371 kts | 138° |
| 2026-05-04 23:46 | 33.28564 | -84.50919 | 17302 ft | 374 kts | 138° |
| 2026-05-04 23:46 | 33.26697 | -84.48723 | 17838 ft | 378 kts | 139° |
| 2026-05-04 23:46 | 33.24815 | -84.46508 | 18374 ft | 381 kts | 139° |
| 2026-05-04 23:46 | 33.22921 | -84.44280 | 18817 ft | 385 kts | 139° |
| 2026-05-04 23:47 | 33.20995 | -84.42019 | 19270 ft | 388 kts | 139° |
| 2026-05-04 23:47 | 33.19064 | -84.39754 | 19714 ft | 392 kts | 139° |
| 2026-05-04 23:47 | 33.17112 | -84.37467 | 20153 ft | 395 kts | 139° |
| 2026-05-04 23:47 | 33.15143 | -84.35160 | 20592 ft | 399 kts | 139° |
| 2026-05-04 23:48 | 33.13158 | -84.32833 | 21044 ft | 402 kts | 139° |
| 2026-05-04 23:48 | 33.11153 | -84.30484 | 21468 ft | 405 kts | 139° |
| 2026-05-04 23:48 | 33.09132 | -84.28116 | 21893 ft | 408 kts | 138° |
| 2026-05-04 23:48 | 33.07098 | -84.25734 | 22335 ft | 411 kts | 138° |
| 2026-05-04 23:49 | 33.05054 | -84.23340 | 22742 ft | 414 kts | 138° |
| 2026-05-04 23:49 | 33.03002 | -84.20937 | 23175 ft | 417 kts | 138° |
| 2026-05-04 23:49 | 33.00817 | -84.18643 | 23553 ft | 417 kts | 147° |
| 2026-05-04 23:49 | 32.98355 | -84.16829 | 23877 ft | 416 kts | 157° |
| 2026-05-04 23:50 | 32.95685 | -84.15529 | 24210 ft | 415 kts | 165° |
| 2026-05-04 23:50 | 32.92949 | -84.14413 | 24555 ft | 417 kts | 165° |
| 2026-05-04 23:50 | 32.90197 | -84.13280 | 24903 ft | 419 kts | 165° |
| 2026-05-04 23:50 | 32.87441 | -84.12141 | 25242 ft | 421 kts | 165° |
| 2026-05-04 23:51 | 32.84658 | -84.10991 | 25573 ft | 423 kts | 165° |
| 2026-05-04 23:51 | 32.81880 | -84.09848 | 25903 ft | 425 kts | 165° |
| 2026-05-04 23:51 | 32.79069 | -84.08693 | 26233 ft | 427 kts | 165° |
| 2026-05-04 23:51 | 32.76247 | -84.07537 | 26560 ft | 429 kts | 165° |
| 2026-05-04 23:52 | 32.73420 | -84.06378 | 26832 ft | 432 kts | 165° |
| 2026-05-04 23:52 | 32.70608 | -84.05226 | 27103 ft | 435 kts | 165° |
| 2026-05-04 23:52 | 32.67736 | -84.04049 | 27426 ft | 438 kts | 165° |
| 2026-05-04 23:52 | 32.64806 | -84.02845 | 27733 ft | 440 kts | 165° |
| 2026-05-04 23:53 | 32.61948 | -84.01670 | 28041 ft | 442 kts | 165° |
| 2026-05-04 23:53 | 32.58978 | -84.00454 | 28357 ft | 444 kts | 165° |
| 2026-05-04 23:53 | 32.56059 | -83.99260 | 28661 ft | 446 kts | 166° |
| 2026-05-04 23:53 | 32.53151 | -83.98073 | 28957 ft | 448 kts | 166° |
| 2026-05-04 23:54 | 32.50192 | -83.96866 | 29252 ft | 450 kts | 166° |
| 2026-05-04 23:54 | 32.47222 | -83.95655 | 29515 ft | 452 kts | 166° |
| 2026-05-04 23:54 | 32.45209 | -83.94836 | 29641 ft | 455 kts | 166° |
| 2026-05-04 23:54 | 32.41225 | -83.93216 | 29940 ft | 459 kts | 166° |
| 2026-05-04 23:55 | 32.38206 | -83.91912 | 30175 ft | 464 kts | 161° |
| 2026-05-04 23:55 | 32.35334 | -83.90127 | 30433 ft | 470 kts | 151° |
| 2026-05-04 23:55 | 32.30030 | -83.85514 | 30884 ft | 476 kts | 147° |
| 2026-05-04 23:56 | 32.28237 | -83.83921 | 31011 ft | 477 kts | 147° |
| 2026-05-04 23:56 | 32.25612 | -83.81598 | 31195 ft | 480 kts | 147° |
| 2026-05-04 23:56 | 32.22895 | -83.79200 | 31393 ft | 482 kts | 147° |
| 2026-05-04 23:56 | 32.20203 | -83.76825 | 31591 ft | 484 kts | 147° |
| 2026-05-04 23:57 | 32.17499 | -83.74438 | 31766 ft | 486 kts | 148° |
| 2026-05-04 23:57 | 32.14784 | -83.72041 | 31893 ft | 490 kts | 148° |
| 2026-05-04 23:57 | 32.12044 | -83.69621 | 32059 ft | 493 kts | 148° |
| 2026-05-04 23:57 | 32.09293 | -83.67192 | 32290 ft | 494 kts | 148° |
| 2026-05-04 23:58 | 32.06534 | -83.64758 | 32530 ft | 495 kts | 148° |
| 2026-05-04 23:58 | 32.03809 | -83.62358 | 32758 ft | 496 kts | 148° |
| 2026-05-04 23:58 | 32.01042 | -83.59922 | 32990 ft | 497 kts | 148° |
| 2026-05-04 23:58 | 31.98268 | -83.57482 | 33221 ft | 498 kts | 148° |
| 2026-05-04 23:59 | 31.95491 | -83.55042 | 33462 ft | 499 kts | 148° |
| 2026-05-04 23:59 | 31.92704 | -83.52596 | 33700 ft | 499 kts | 148° |
| 2026-05-04 23:59 | 31.89902 | -83.50135 | 34029 ft | 498 kts | 149° |
| 2026-05-04 23:59 | 31.87116 | -83.47685 | 34177 ft | 500 kts | 149° |
| 2026-05-05 00:00 | 31.84356 | -83.45260 | 34345 ft | 501 kts | 149° |
| 2026-05-05 00:00 | 31.82469 | -83.43606 | 34501 ft | 501 kts | 149° |
| 2026-05-05 00:00 | 31.78763 | -83.40372 | 34768 ft | 502 kts | 149° |
| 2026-05-05 00:00 | 31.75942 | -83.37916 | 34975 ft | 502 kts | 149° |
| 2026-05-05 00:01 | 31.73153 | -83.35483 | 35062 ft | 499 kts | 149° |
| 2026-05-05 00:01 | 31.67651 | -83.30664 | 35072 ft | 489 kts | 149° |
| 2026-05-05 00:02 | 31.62072 | -83.26242 | 34985 ft | 479 kts | 160° |
| 2026-05-05 00:02 | 31.56041 | -83.22876 | 35045 ft | 483 kts | 162° |
| 2026-05-05 00:03 | 31.49956 | -83.19482 | 35054 ft | 486 kts | 161° |
| 2026-05-05 00:03 | 31.43859 | -83.16048 | 35053 ft | 486 kts | 161° |
| 2026-05-05 00:04 | 31.37800 | -83.12647 | 35087 ft | 483 kts | 162° |
| 2026-05-05 00:04 | 31.31751 | -83.09271 | 35039 ft | 479 kts | 162° |
| 2026-05-05 00:05 | 31.25746 | -83.05932 | 35048 ft | 478 kts | 162° |
| 2026-05-05 00:05 | 31.19699 | -83.02574 | 35053 ft | 477 kts | 162° |
| 2026-05-05 00:06 | 31.13741 | -82.99269 | 35050 ft | 477 kts | 162° |
| 2026-05-05 00:06 | 31.07734 | -82.95936 | 35062 ft | 481 kts | 162° |
| 2026-05-05 00:07 | 31.01626 | -82.92573 | 35065 ft | 490 kts | 162° |
| 2026-05-05 00:07 | 30.95421 | -82.89148 | 35063 ft | 494 kts | 162° |
| 2026-05-05 00:08 | 30.89264 | -82.85569 | 35079 ft | 501 kts | 154° |
| 2026-05-05 00:08 | 30.83621 | -82.80662 | 35091 ft | 507 kts | 147° |
| 2026-05-05 00:09 | 30.78060 | -82.75616 | 35104 ft | 506 kts | 148° |
| 2026-05-05 00:09 | 30.72502 | -82.70595 | 35093 ft | 505 kts | 148° |
| 2026-05-05 00:10 | 30.66953 | -82.65611 | 35130 ft | 504 kts | 148° |
| 2026-05-05 00:10 | 30.61409 | -82.60633 | 35134 ft | 504 kts | 148° |
| 2026-05-05 00:11 | 30.55872 | -82.55664 | 35128 ft | 503 kts | 148° |
| 2026-05-05 00:11 | 30.50359 | -82.50717 | 35160 ft | 503 kts | 148° |
| 2026-05-05 00:12 | 30.44784 | -82.45710 | 35143 ft | 503 kts | 148° |
| 2026-05-05 00:12 | 30.39247 | -82.40761 | 35132 ft | 503 kts | 148° |
| 2026-05-05 00:13 | 30.33698 | -82.35820 | 35173 ft | 502 kts | 148° |
| 2026-05-05 00:13 | 30.28165 | -82.30896 | 35160 ft | 501 kts | 148° |
| 2026-05-05 00:14 | 30.22580 | -82.26105 | 35149 ft | 494 kts | 156° |
| 2026-05-05 00:14 | 30.16432 | -82.23055 | 35072 ft | 473 kts | 174° |
| 2026-05-05 00:15 | 30.10030 | -82.21701 | 35088 ft | 467 kts | 179° |
| 2026-05-05 00:15 | 30.03613 | -82.20441 | 35084 ft | 468 kts | 179° |
| 2026-05-05 00:16 | 29.97193 | -82.19164 | 35084 ft | 468 kts | 179° |
| 2026-05-05 00:16 | 29.90781 | -82.17891 | 35076 ft | 468 kts | 179° |
| 2026-05-05 00:17 | 29.84326 | -82.16607 | 34529 ft | 480 kts | 178° |
| 2026-05-05 00:17 | 29.80963 | -82.15947 | 33306 ft | 493 kts | 178° |
| 2026-05-05 00:17 | 29.77643 | -82.15284 | 32757 ft | 481 kts | 178° |
| 2026-05-05 00:17 | 29.74377 | -82.14619 | 32169 ft | 471 kts | 178° |
| 2026-05-05 00:18 | 29.71175 | -82.13966 | 31417 ft | 464 kts | 178° |
| 2026-05-05 00:18 | 29.67990 | -82.13329 | 30345 ft | 466 kts | 178° |
| 2026-05-05 00:18 | 29.64739 | -82.12683 | 29416 ft | 461 kts | 178° |
| 2026-05-05 00:18 | 29.61631 | -82.12068 | 28416 ft | 453 kts | 178° |
| 2026-05-05 00:19 | 29.58583 | -82.11462 | 27802 ft | 432 kts | 178° |
| 2026-05-05 00:19 | 29.55686 | -82.10876 | 27388 ft | 410 kts | 178° |
| 2026-05-05 00:19 | 29.52949 | -82.10321 | 26904 ft | 392 kts | 178° |
| 2026-05-05 00:19 | 29.50273 | -82.09786 | 26465 ft | 385 kts | 178° |
| 2026-05-05 00:20 | 29.47592 | -82.09270 | 26008 ft | 389 kts | 178° |
| 2026-05-05 00:20 | 29.44934 | -82.08763 | 25536 ft | 399 kts | 178° |
| 2026-05-05 00:20 | 29.42133 | -82.08232 | 25030 ft | 406 kts | 177° |
| 2026-05-05 00:20 | 29.39388 | -82.07701 | 24545 ft | 406 kts | 176° |
| 2026-05-05 00:21 | 29.36562 | -82.07139 | 24042 ft | 405 kts | 176° |
| 2026-05-05 00:21 | 29.33794 | -82.06584 | 23530 ft | 404 kts | 176° |
| 2026-05-05 00:21 | 29.31056 | -82.05839 | 22998 ft | 406 kts | 166° |
| 2026-05-05 00:21 | 29.28495 | -82.04568 | 22499 ft | 409 kts | 155° |
| 2026-05-05 00:22 | 29.26020 | -82.02992 | 22014 ft | 406 kts | 155° |
| 2026-05-05 00:22 | 29.23529 | -82.01417 | 21519 ft | 403 kts | 155° |
| 2026-05-05 00:22 | 29.21107 | -81.99895 | 21040 ft | 401 kts | 155° |
| 2026-05-05 00:22 | 29.18677 | -81.98371 | 20649 ft | 396 kts | 155° |
| 2026-05-05 00:23 | 29.16262 | -81.96854 | 20197 ft | 393 kts | 155° |
| 2026-05-05 00:23 | 29.13881 | -81.95359 | 19804 ft | 389 kts | 155° |
| 2026-05-05 00:23 | 29.11512 | -81.93871 | 19363 ft | 386 kts | 155° |
| 2026-05-05 00:23 | 29.09167 | -81.92405 | 18958 ft | 383 kts | 155° |
| 2026-05-05 00:24 | 29.06904 | -81.90818 | 18571 ft | 382 kts | 146° |
| 2026-05-05 00:24 | 29.04897 | -81.88831 | 18157 ft | 381 kts | 139° |
| 2026-05-05 00:24 | 29.02977 | -81.86763 | 17704 ft | 378 kts | 139° |
| 2026-05-05 00:24 | 29.01060 | -81.84706 | 17272 ft | 375 kts | 139° |
| 2026-05-05 00:25 | 28.99171 | -81.82677 | 16819 ft | 372 kts | 139° |
| 2026-05-05 00:25 | 28.97422 | -81.80515 | 16401 ft | 371 kts | 129° |
| 2026-05-05 00:25 | 28.95857 | -81.78182 | 15994 ft | 368 kts | 129° |
| 2026-05-05 00:25 | 28.94309 | -81.75884 | 15667 ft | 362 kts | 129° |
| 2026-05-05 00:26 | 28.92784 | -81.73624 | 15347 ft | 357 kts | 129° |
| 2026-05-05 00:26 | 28.91281 | -81.71400 | 14990 ft | 354 kts | 129° |
| 2026-05-05 00:26 | 28.89781 | -81.69178 | 14612 ft | 351 kts | 129° |
| 2026-05-05 00:26 | 28.88289 | -81.66971 | 14227 ft | 349 kts | 129° |
| 2026-05-05 00:27 | 28.86814 | -81.64790 | 13863 ft | 346 kts | 128° |
| 2026-05-05 00:27 | 28.85357 | -81.62636 | 13520 ft | 342 kts | 128° |
| 2026-05-05 00:27 | 28.83909 | -81.60498 | 13099 ft | 340 kts | 129° |
| 2026-05-05 00:27 | 28.82459 | -81.58363 | 12723 ft | 337 kts | 129° |
| 2026-05-05 00:28 | 28.81048 | -81.56286 | 12592 ft | 325 kts | 129° |
| 2026-05-05 00:28 | 28.79530 | -81.54454 | 12408 ft | 315 kts | 142° |
| 2026-05-05 00:28 | 28.77733 | -81.53064 | 12083 ft | 309 kts | 155° |
| 2026-05-05 00:28 | 28.75830 | -81.51936 | 11735 ft | 307 kts | 154° |
| 2026-05-05 00:29 | 28.73952 | -81.50817 | 11377 ft | 305 kts | 154° |
| 2026-05-05 00:29 | 28.72071 | -81.49692 | 11029 ft | 303 kts | 154° |
| 2026-05-05 00:29 | 28.70218 | -81.48583 | 10682 ft | 301 kts | 155° |
| 2026-05-05 00:29 | 28.68366 | -81.47470 | 10317 ft | 300 kts | 155° |
| 2026-05-05 00:30 | 28.66529 | -81.46369 | 9981 ft | 298 kts | 155° |
| 2026-05-05 00:30 | 28.64702 | -81.45271 | 9603 ft | 296 kts | 155° |
| 2026-05-05 00:30 | 28.62882 | -81.44187 | 9243 ft | 294 kts | 155° |
| 2026-05-05 00:30 | 28.61072 | -81.43174 | 9039 ft | 283 kts | 162° |
| 2026-05-05 00:31 | 28.59213 | -81.42637 | 8923 ft | 268 kts | 176° |
| 2026-05-05 00:31 | 28.57395 | -81.42447 | 8780 ft | 257 kts | 179° |
| 2026-05-05 00:31 | 28.55640 | -81.42423 | 8657 ft | 251 kts | 183° |
| 2026-05-05 00:31 | 28.53897 | -81.42429 | 8492 ft | 250 kts | 183° |
| 2026-05-05 00:32 | 28.52722 | -81.42429 | 8310 ft | 249 kts | 183° |
| 2026-05-05 00:32 | 28.51022 | -81.42428 | 8011 ft | 247 kts | 182° |
| 2026-05-05 00:32 | 28.49287 | -81.42422 | 7689 ft | 245 kts | 182° |
| 2026-05-05 00:32 | 28.47604 | -81.42418 | 7389 ft | 244 kts | 183° |
| 2026-05-05 00:33 | 28.45897 | -81.42421 | 7081 ft | 242 kts | 183° |
| 2026-05-05 00:33 | 28.44230 | -81.42421 | 7005 ft | 239 kts | 182° |
| 2026-05-05 00:33 | 28.42559 | -81.42418 | 7009 ft | 240 kts | 182° |
| 2026-05-05 00:33 | 28.40891 | -81.42415 | 7009 ft | 240 kts | 182° |
| 2026-05-05 00:34 | 28.39246 | -81.42414 | 7014 ft | 240 kts | 182° |
| 2026-05-05 00:34 | 28.37604 | -81.42413 | 7012 ft | 229 kts | 182° |
| 2026-05-05 00:34 | 28.36022 | -81.42410 | 7016 ft | 223 kts | 182° |
| 2026-05-05 00:34 | 28.34493 | -81.42410 | 7008 ft | 223 kts | 183° |
| 2026-05-05 00:35 | 28.32881 | -81.42397 | 6493 ft | 235 kts | 181° |
| 2026-05-05 00:35 | 28.31195 | -81.42370 | 5856 ft | 248 kts | 180° |
| 2026-05-05 00:35 | 28.29423 | -81.42336 | 5227 ft | 259 kts | 181° |
| 2026-05-05 00:35 | 28.27609 | -81.42293 | 4761 ft | 263 kts | 179° |
| 2026-05-05 00:36 | 28.25788 | -81.42227 | 4312 ft | 264 kts | 172° |
| 2026-05-05 00:36 | 28.24090 | -81.41522 | 3831 ft | 262 kts | 142° |
| 2026-05-05 00:36 | 28.22929 | -81.39980 | 3455 ft | 256 kts | 112° |
| 2026-05-05 00:36 | 28.22606 | -81.38047 | 3147 ft | 246 kts | 87° |
| 2026-05-05 00:37 | 28.22806 | -81.36213 | 3007 ft | 222 kts | 70° |
| 2026-05-05 00:37 | 28.23531 | -81.34755 | 3014 ft | 215 kts | 45° |
| 2026-05-05 00:37 | 28.24836 | -81.33946 | 3179 ft | 219 kts | 20° |
| 2026-05-05 00:37 | 28.26296 | -81.33422 | 2992 ft | 217 kts | 20° |
| 2026-05-05 00:38 | 28.27726 | -81.32957 | 2778 ft | 210 kts | 18° |
| 2026-05-05 00:38 | 28.29114 | -81.32612 | 2509 ft | 200 kts | 13° |
| 2026-05-05 00:38 | 28.30461 | -81.32515 | 2309 ft | 188 kts | 2° |
| 2026-05-05 00:38 | 28.31719 | -81.32660 | 2053 ft | 177 kts | 358° |
| 2026-05-05 00:39 | 28.32864 | -81.32711 | 1921 ft | 155 kts | 7° |
| 2026-05-05 00:39 | 28.33896 | -81.32649 | 1733 ft | 146 kts | 10° |
| 2026-05-05 00:39 | 28.34905 | -81.32586 | 1498 ft | 142 kts | 6° |
| 2026-05-05 00:39 | 28.35894 | -81.32610 | 1325 ft | 143 kts | 1° |
| 2026-05-05 00:40 | 28.36892 | -81.32634 | 1098 ft | 143 kts | 5° |
| 2026-05-05 00:40 | 28.37869 | -81.32609 | 935 ft | 139 kts | 1° |
| 2026-05-05 00:40 | 28.38841 | -81.32634 | 736 ft | 139 kts | 6° |
| 2026-05-05 00:40 | 28.39807 | -81.32665 | 518 ft | 140 kts | 3° |
| 2026-05-05 00:41 | 28.40799 | -81.32663 | 284 ft | 143 kts | 3° |
| 2026-05-05 00:41 | 28.41787 | -81.32672 | 116 ft | 139 kts | 4° |
| 2026-05-05 00:41 | 28.42662 | -81.32664 | 99 ft | 106 kts | 360° |
| 2026-05-05 00:41 | 28.43095 | -81.32666 | 101 ft | 18 kts | 0° |
| 2026-05-05 00:42 | 28.43318 | -81.32669 | 102 ft | 44 kts | 359° |
| 2026-05-05 00:42 | 28.43629 | -81.32666 | 102 ft | 33 kts | 5° |
| 2026-05-05 00:42 | 28.43738 | -81.32546 | 99 ft | 22 kts | 65° |
| 2026-05-05 00:42 | 28.43822 | -81.32402 | 99 ft | 21 kts | 59° |
| 2026-05-05 00:43 | 28.43894 | -81.32265 | 100 ft | 19 kts | 60° |
| 2026-05-05 00:43 | 28.43959 | -81.32134 | 100 ft | 20 kts | 60° |
| 2026-05-05 00:43 | 28.43987 | -81.32060 | 100 ft | 0 kts | 93° |
| 2026-05-05 00:44 | 28.43986 | -81.32023 | 99 ft | 13 kts | 93° |
| 2026-05-05 00:44 | 28.43942 | -81.31905 | 100 ft | 16 kts | 120° |
| 2026-05-05 00:44 | 28.43863 | -81.31848 | 99 ft | 13 kts | 180° |
| 2026-05-05 00:44 | 28.43769 | -81.31848 | 100 ft | 13 kts | 179° |
| 2026-05-05 00:45 | 28.43651 | -81.31846 | 98 ft | 24 kts | 180° |
| 2026-05-05 00:45 | 28.43472 | -81.31846 | 98 ft | 24 kts | 179° |
| 2026-05-05 00:45 | 28.43310 | -81.31843 | 99 ft | 23 kts | 178° |
| 2026-05-05 00:45 | 28.43153 | -81.31840 | 100 ft | 22 kts | 180° |
| 2026-05-05 00:46 | 28.43004 | -81.31840 | 98 ft | 21 kts | 179° |
| 2026-05-05 00:46 | 28.42859 | -81.31837 | 99 ft | 20 kts | 178° |
| 2026-05-05 00:46 | 28.42725 | -81.31834 | 101 ft | 18 kts | 179° |
| 2026-05-05 00:46 | 28.42607 | -81.31832 | 102 ft | 16 kts | 179° |
| 2026-05-05 00:47 | 28.42493 | -81.31833 | 101 ft | 17 kts | 182° |
| 2026-05-05 00:47 | 28.42376 | -81.31833 | 100 ft | 16 kts | 171° |
| 2026-05-05 00:47 | 28.42350 | -81.31761 | 100 ft | 9 kts | 94° |
| 2026-05-05 00:47 | 28.42347 | -81.31683 | 99 ft | 14 kts | 90° |
| 2026-05-05 00:48 | 28.42348 | -81.31537 | 97 ft | 20 kts | 89° |
| 2026-05-05 00:48 | 28.42350 | -81.31373 | 95 ft | 21 kts | 89° |
| 2026-05-05 00:48 | 28.42345 | -81.31205 | 94 ft | 21 kts | 98° |
| 2026-05-05 00:48 | 28.42319 | -81.31043 | 94 ft | 21 kts | 97° |
| 2026-05-05 00:49 | 28.42321 | -81.30880 | 94 ft | 20 kts | 85° |
| 2026-05-05 00:49 | 28.42332 | -81.30720 | 96 ft | 20 kts | 86° |
| 2026-05-05 00:49 | 28.42343 | -81.30569 | 95 ft | 20 kts | 85° |
| 2026-05-05 00:49 | 28.42361 | -81.30416 | 95 ft | 17 kts | 57° |
| 2026-05-05 00:50 | 28.42432 | -81.30404 | 96 ft | 9 kts | 1° |
| 2026-05-05 00:50 | 28.42486 | -81.30403 | 98 ft | 5 kts | 1° |
| 2026-05-05 00:50 | 28.42537 | -81.30400 | 98 ft | 13 kts | 11° |
| 2026-05-05 00:50 | 28.42561 | -81.30308 | 97 ft | 11 kts | 70° |
| 2026-05-05 00:51 | 28.42626 | -81.30277 | 95 ft | 10 kts | 359° |